sensor_id;sensor_type;location;lat;lon;timestamp;pressure;altitude;pressure_sealevel;temperature;humidity
18500;BME280;9379;52.134;11.576;2023-02-22T00:00:14;101047.72;;;13.37;90.20
18500;BME280;9379;52.134;11.576;2023-02-22T00:02:48;101052.34;;;13.16;90.81
18500;BME280;9379;52.134;11.576;2023-02-22T00:05:15;101048.06;;;12.55;94.08
18500;BME280;9379;52.134;11.576;2023-02-22T00:07:45;101047.81;;;12.68;94.33
18500;BME280;9379;52.134;11.576;2023-02-22T00:10:12;101050.91;;;12.83;93.12
18500;BME280;9379;52.134;11.576;2023-02-22T00:12:41;101048.22;;;12.64;94.95
18500;BME280;9379;52.134;11.576;2023-02-22T00:15:08;101049.34;;;12.71;93.49
18500;BME280;9379;52.134;11.576;2023-02-22T00:17:38;101048.19;;;12.44;95.11
18500;BME280;9379;52.134;11.576;2023-02-22T00:20:07;101051.84;;;12.53;94.38
18500;BME280;9379;52.134;11.576;2023-02-22T00:22:34;101056.88;;;12.46;95.08
18500;BME280;9379;52.134;11.576;2023-02-22T00:25:02;101044.59;;;12.74;94.11
18500;BME280;9379;52.134;11.576;2023-02-22T00:27:29;101051.88;;;12.72;93.50
18500;BME280;9379;52.134;11.576;2023-02-22T00:29:57;101053.94;;;12.49;95.15
18500;BME280;9379;52.134;11.576;2023-02-22T00:32:24;101055.75;;;12.49;94.82
18500;BME280;9379;52.134;11.576;2023-02-22T00:34:51;101053.81;;;12.51;94.56
18500;BME280;9379;52.134;11.576;2023-02-22T00:37:19;101057.16;;;12.43;95.29
18500;BME280;9379;52.134;11.576;2023-02-22T00:39:46;101047.06;;;12.47;95.08
18500;BME280;9379;52.134;11.576;2023-02-22T00:42:13;101045.31;;;12.26;95.35
18500;BME280;9379;52.134;11.576;2023-02-22T00:44:40;101049.19;;;12.13;97.02
18500;BME280;9379;52.134;11.576;2023-02-22T00:47:09;101050.16;;;12.12;96.62
18500;BME280;9379;52.134;11.576;2023-02-22T00:49:36;101039.88;;;11.97;97.19
18500;BME280;9379;52.134;11.576;2023-02-22T00:52:03;101044.09;;;12.31;96.50
18500;BME280;9379;52.134;11.576;2023-02-22T00:54:30;101041.97;;;12.34;95.66
18500;BME280;9379;52.134;11.576;2023-02-22T00:56:57;101045.38;;;12.46;94.92
18500;BME280;9379;52.134;11.576;2023-02-22T00:59:24;101042.22;;;12.81;93.58
18500;BME280;9379;52.134;11.576;2023-02-22T01:01:51;101028.59;;;12.65;93.35
18500;BME280;9379;52.134;11.576;2023-02-22T01:04:19;101036.97;;;12.41;94.50
18500;BME280;9379;52.134;11.576;2023-02-22T01:06:46;101035.47;;;12.17;96.13
18500;BME280;9379;52.134;11.576;2023-02-22T01:09:13;101038.41;;;12.14;96.69
18500;BME280;9379;52.134;11.576;2023-02-22T01:11:40;101038.16;;;12.27;95.37
18500;BME280;9379;52.134;11.576;2023-02-22T01:14:07;101024.22;;;12.14;95.30
18500;BME280;9379;52.134;11.576;2023-02-22T01:16:34;101042.34;;;12.20;96.09
18500;BME280;9379;52.134;11.576;2023-02-22T01:19:01;101034.97;;;12.03;96.68
18500;BME280;9379;52.134;11.576;2023-02-22T01:21:29;101033.47;;;12.10;96.55
18500;BME280;9379;52.134;11.576;2023-02-22T01:23:56;101037.97;;;12.09;96.40
18500;BME280;9379;52.134;11.576;2023-02-22T01:26:23;101031.75;;;11.99;97.06
18500;BME280;9379;52.134;11.576;2023-02-22T01:28:50;101032.22;;;12.04;97.58
18500;BME280;9379;52.134;11.576;2023-02-22T01:31:16;101022.19;;;12.37;95.44
18500;BME280;9379;52.134;11.576;2023-02-22T01:33:43;101022.31;;;12.16;95.84
18500;BME280;9379;52.134;11.576;2023-02-22T01:36:10;101023.50;;;12.42;94.97
18500;BME280;9379;52.134;11.576;2023-02-22T01:38:38;101021.00;;;12.50;94.28
18500;BME280;9379;52.134;11.576;2023-02-22T01:41:05;101020.22;;;12.29;95.40
18500;BME280;9379;52.134;11.576;2023-02-22T01:43:32;101026.50;;;12.18;96.05
18500;BME280;9379;52.134;11.576;2023-02-22T01:46:00;101003.91;;;12.13;95.87
18500;BME280;9379;52.134;11.576;2023-02-22T01:48:33;101024.34;;;12.43;94.83
18500;BME280;9379;52.134;11.576;2023-02-22T01:51:03;101012.00;;;12.51;94.18
18500;BME280;9379;52.134;11.576;2023-02-22T01:53:40;101007.50;;;12.42;93.98
18500;BME280;9379;52.134;11.576;2023-02-22T01:56:09;101020.50;;;12.36;95.46
18500;BME280;9379;52.134;11.576;2023-02-22T01:58:37;101013.81;;;12.61;94.09
18500;BME280;9379;52.134;11.576;2023-02-22T02:01:06;101007.78;;;12.59;93.70
18500;BME280;9379;52.134;11.576;2023-02-22T02:03:35;101016.59;;;12.49;94.57
18500;BME280;9379;52.134;11.576;2023-02-22T02:06:06;101012.81;;;12.42;94.38
18500;BME280;9379;52.134;11.576;2023-02-22T02:08:43;101004.44;;;12.56;93.95
18500;BME280;9379;52.134;11.576;2023-02-22T02:11:15;101014.25;;;12.56;94.00
18500;BME280;9379;52.134;11.576;2023-02-22T02:13:43;101002.00;;;12.34;94.29
18500;BME280;9379;52.134;11.576;2023-02-22T02:16:10;101015.03;;;12.37;95.04
18500;BME280;9379;52.134;11.576;2023-02-22T02:18:37;101016.44;;;12.32;94.82
18500;BME280;9379;52.134;11.576;2023-02-22T02:21:38;101016.38;;;12.12;96.22
18500;BME280;9379;52.134;11.576;2023-02-22T02:24:35;101004.00;;;12.02;97.00
18500;BME280;9379;52.134;11.576;2023-02-22T02:27:11;100996.00;;;12.42;95.06
18500;BME280;9379;52.134;11.576;2023-02-22T02:30:22;100997.22;;;12.38;94.12
18500;BME280;9379;52.134;11.576;2023-02-22T02:33:04;100995.81;;;12.34;94.63
18500;BME280;9379;52.134;11.576;2023-02-22T02:35:45;100996.81;;;12.33;95.00
18500;BME280;9379;52.134;11.576;2023-02-22T02:38:20;100992.00;;;12.26;95.25
18500;BME280;9379;52.134;11.576;2023-02-22T02:40:56;100982.47;;;12.24;95.25
18500;BME280;9379;52.134;11.576;2023-02-22T02:43:28;100991.63;;;12.41;95.05
18500;BME280;9379;52.134;11.576;2023-02-22T02:46:02;100996.25;;;12.48;94.03
18500;BME280;9379;52.134;11.576;2023-02-22T02:48:33;100989.84;;;12.51;93.94
18500;BME280;9379;52.134;11.576;2023-02-22T02:51:04;100983.09;;;12.56;93.26
18500;BME280;9379;52.134;11.576;2023-02-22T02:53:34;100988.69;;;12.44;94.07
18500;BME280;9379;52.134;11.576;2023-02-22T02:56:03;100985.31;;;12.42;94.17
18500;BME280;9379;52.134;11.576;2023-02-22T02:58:30;100968.50;;;12.41;94.11
18500;BME280;9379;52.134;11.576;2023-02-22T03:01:00;100982.47;;;12.24;94.82
18500;BME280;9379;52.134;11.576;2023-02-22T03:03:53;100970.09;;;12.13;95.50
18500;BME280;9379;52.134;11.576;2023-02-22T03:06:47;100973.53;;;12.35;95.40
18500;BME280;9379;52.134;11.576;2023-02-22T03:09:26;100948.28;;;12.48;93.50
18500;BME280;9379;52.134;11.576;2023-02-22T03:12:12;100965.69;;;12.81;92.48
18500;BME280;9379;52.134;11.576;2023-02-22T03:14:52;100962.72;;;12.36;93.80
18500;BME280;9379;52.134;11.576;2023-02-22T03:17:25;100952.63;;;12.30;94.62
18500;BME280;9379;52.134;11.576;2023-02-22T03:19:59;100954.19;;;12.42;94.26
18500;BME280;9379;52.134;11.576;2023-02-22T03:22:31;100942.66;;;12.32;93.78
18500;BME280;9379;52.134;11.576;2023-02-22T03:25:02;100953.13;;;12.14;95.03
18500;BME280;9379;52.134;11.576;2023-02-22T03:27:36;100941.50;;;12.15;95.05
18500;BME280;9379;52.134;11.576;2023-02-22T03:30:11;100933.31;;;11.88;95.71
18500;BME280;9379;52.134;11.576;2023-02-22T03:32:43;100947.72;;;11.85;96.40
18500;BME280;9379;52.134;11.576;2023-02-22T03:35:16;100947.63;;;11.96;96.35
18500;BME280;9379;52.134;11.576;2023-02-22T03:37:45;100933.97;;;11.80;96.92
18500;BME280;9379;52.134;11.576;2023-02-22T03:40:17;100945.59;;;11.79;97.24
18500;BME280;9379;52.134;11.576;2023-02-22T03:42:53;100943.47;;;11.22;99.66
18500;BME280;9379;52.134;11.576;2023-02-22T03:45:24;100955.56;;;11.05;100.00
18500;BME280;9379;52.134;11.576;2023-02-22T03:47:59;100952.16;;;10.82;100.00
18500;BME280;9379;52.134;11.576;2023-02-22T03:50:32;100969.16;;;11.32;100.00
18500;BME280;9379;52.134;11.576;2023-02-22T03:53:00;100963.25;;;11.80;97.58
18500;BME280;9379;52.134;11.576;2023-02-22T03:55:27;100970.06;;;11.22;99.10
18500;BME280;9379;52.134;11.576;2023-02-22T03:57:57;100960.88;;;11.47;98.11
18500;BME280;9379;52.134;11.576;2023-02-22T04:00:27;100956.41;;;11.57;96.63
18500;BME280;9379;52.134;11.576;2023-02-22T04:02:55;100965.78;;;11.30;98.07
18500;BME280;9379;52.134;11.576;2023-02-22T04:05:21;100960.00;;;11.77;96.49
18500;BME280;9379;52.134;11.576;2023-02-22T04:07:51;100946.41;;;11.70;95.38
18500;BME280;9379;52.134;11.576;2023-02-22T04:10:18;100954.44;;;11.80;94.76
18500;BME280;9379;52.134;11.576;2023-02-22T04:12:45;100962.81;;;12.06;93.72
18500;BME280;9379;52.134;11.576;2023-02-22T04:15:14;100964.06;;;11.71;95.32
18500;BME280;9379;52.134;11.576;2023-02-22T04:17:41;100958.91;;;11.79;95.12
18500;BME280;9379;52.134;11.576;2023-02-22T04:20:09;100959.75;;;11.80;94.37
18500;BME280;9379;52.134;11.576;2023-02-22T04:22:38;100977.31;;;11.61;95.84
18500;BME280;9379;52.134;11.576;2023-02-22T04:25:06;100969.19;;;11.63;96.00
18500;BME280;9379;52.134;11.576;2023-02-22T04:27:33;100959.75;;;11.28;97.00
18500;BME280;9379;52.134;11.576;2023-02-22T04:30:00;100967.34;;;11.33;97.28
18500;BME280;9379;52.134;11.576;2023-02-22T04:32:27;100962.09;;;11.22;98.05
18500;BME280;9379;52.134;11.576;2023-02-22T04:34:53;100962.56;;;11.27;98.28
18500;BME280;9379;52.134;11.576;2023-02-22T04:37:20;100960.59;;;11.29;97.43
18500;BME280;9379;52.134;11.576;2023-02-22T04:39:47;100958.84;;;10.97;98.69
18500;BME280;9379;52.134;11.576;2023-02-22T04:42:15;100965.75;;;11.00;99.11
18500;BME280;9379;52.134;11.576;2023-02-22T04:44:42;100947.50;;;11.16;98.21
18500;BME280;9379;52.134;11.576;2023-02-22T04:47:09;100962.50;;;11.38;97.04
18500;BME280;9379;52.134;11.576;2023-02-22T04:49:35;100966.81;;;10.97;97.68
18500;BME280;9379;52.134;11.576;2023-02-22T04:52:02;100962.38;;;11.19;98.51
18500;BME280;9379;52.134;11.576;2023-02-22T04:54:29;100952.75;;;11.27;96.80
18500;BME280;9379;52.134;11.576;2023-02-22T04:56:56;100958.91;;;11.28;97.11
18500;BME280;9379;52.134;11.576;2023-02-22T04:59:24;100958.91;;;11.28;97.38
18500;BME280;9379;52.134;11.576;2023-02-22T05:01:51;100943.94;;;11.06;97.73
18500;BME280;9379;52.134;11.576;2023-02-22T05:04:18;100959.31;;;11.02;97.64
18500;BME280;9379;52.134;11.576;2023-02-22T05:06:46;100948.75;;;11.12;97.49
18500;BME280;9379;52.134;11.576;2023-02-22T05:09:13;100953.28;;;11.00;98.16
18500;BME280;9379;52.134;11.576;2023-02-22T05:11:40;100937.84;;;11.36;96.47
18500;BME280;9379;52.134;11.576;2023-02-22T05:14:07;100951.88;;;11.78;94.85
18500;BME280;9379;52.134;11.576;2023-02-22T05:16:35;100952.50;;;11.82;94.19
18500;BME280;9379;52.134;11.576;2023-02-22T05:19:02;100940.00;;;11.00;97.84
18500;BME280;9379;52.134;11.576;2023-02-22T05:21:29;100948.81;;;11.01;98.78
18500;BME280;9379;52.134;11.576;2023-02-22T05:23:56;100950.94;;;10.86;98.83
18500;BME280;9379;52.134;11.576;2023-02-22T05:26:23;100948.97;;;10.88;99.15
18500;BME280;9379;52.134;11.576;2023-02-22T05:28:49;100949.78;;;11.00;99.42
18500;BME280;9379;52.134;11.576;2023-02-22T05:31:16;100954.88;;;11.33;97.52
18500;BME280;9379;52.134;11.576;2023-02-22T05:33:44;100938.78;;;11.65;95.03
18500;BME280;9379;52.134;11.576;2023-02-22T05:36:12;100949.94;;;11.50;95.58
18500;BME280;9379;52.134;11.576;2023-02-22T05:38:41;100938.91;;;11.33;96.71
18500;BME280;9379;52.134;11.576;2023-02-22T05:41:09;100946.53;;;11.38;95.17
18500;BME280;9379;52.134;11.576;2023-02-22T05:43:36;100940.00;;;11.00;97.67
18500;BME280;9379;52.134;11.576;2023-02-22T05:46:03;100943.09;;;11.05;97.98
18500;BME280;9379;52.134;11.576;2023-02-22T05:48:30;100941.06;;;11.19;97.84
18500;BME280;9379;52.134;11.576;2023-02-22T05:50:58;100936.78;;;11.27;96.71
18500;BME280;9379;52.134;11.576;2023-02-22T05:53:25;100955.97;;;11.52;96.04
18500;BME280;9379;52.134;11.576;2023-02-22T05:55:52;100943.00;;;11.68;94.99
18500;BME280;9379;52.134;11.576;2023-02-22T05:58:19;100942.75;;;11.71;95.16
18500;BME280;9379;52.134;11.576;2023-02-22T06:00:45;100942.44;;;11.64;95.21
18500;BME280;9379;52.134;11.576;2023-02-22T06:03:12;100944.50;;;11.91;93.71
18500;BME280;9379;52.134;11.576;2023-02-22T06:05:39;100943.69;;;11.60;94.91
18500;BME280;9379;52.134;11.576;2023-02-22T06:08:08;100946.13;;;11.73;95.10
18500;BME280;9379;52.134;11.576;2023-02-22T06:10:35;100943.19;;;11.76;93.96
18500;BME280;9379;52.134;11.576;2023-02-22T06:13:03;100954.53;;;11.78;94.25
18500;BME280;9379;52.134;11.576;2023-02-22T06:15:31;100948.31;;;11.68;94.40
18500;BME280;9379;52.134;11.576;2023-02-22T06:17:58;100955.94;;;11.73;94.25
18500;BME280;9379;52.134;11.576;2023-02-22T06:20:28;100926.25;;;11.47;94.61
18500;BME280;9379;52.134;11.576;2023-02-22T06:22:56;100953.59;;;11.49;94.94
18500;BME280;9379;52.134;11.576;2023-02-22T06:25:26;100960.19;;;11.54;95.26
18500;BME280;9379;52.134;11.576;2023-02-22T06:27:55;100955.19;;;11.61;94.99
18500;BME280;9379;52.134;11.576;2023-02-22T06:30:24;100950.16;;;11.67;94.90
18500;BME280;9379;52.134;11.576;2023-02-22T06:32:51;100955.16;;;11.82;94.67
18500;BME280;9379;52.134;11.576;2023-02-22T06:35:18;100946.66;;;11.97;93.72
18500;BME280;9379;52.134;11.576;2023-02-22T06:37:45;100956.00;;;11.92;93.39
18500;BME280;9379;52.134;11.576;2023-02-22T06:40:12;100953.53;;;11.69;94.96
18500;BME280;9379;52.134;11.576;2023-02-22T06:42:40;100962.75;;;11.86;94.35
18500;BME280;9379;52.134;11.576;2023-02-22T06:45:08;100958.34;;;12.16;92.91
18500;BME280;9379;52.134;11.576;2023-02-22T06:47:37;100960.00;;;12.07;92.65
18500;BME280;9379;52.134;11.576;2023-02-22T06:50:06;100953.25;;;11.93;93.39
18500;BME280;9379;52.134;11.576;2023-02-22T06:52:33;100964.03;;;12.02;93.62
18500;BME280;9379;52.134;11.576;2023-02-22T06:55:00;100961.38;;;12.02;93.52
18500;BME280;9379;52.134;11.576;2023-02-22T06:57:26;100956.56;;;11.34;96.15
18500;BME280;9379;52.134;11.576;2023-02-22T06:59:55;100956.97;;;11.81;95.27
18500;BME280;9379;52.134;11.576;2023-02-22T07:02:26;100950.56;;;12.03;93.94
18500;BME280;9379;52.134;11.576;2023-02-22T07:04:53;100961.44;;;11.81;94.24
18500;BME280;9379;52.134;11.576;2023-02-22T07:07:21;100962.81;;;11.75;95.10
18500;BME280;9379;52.134;11.576;2023-02-22T07:09:49;100951.16;;;11.76;94.48
18500;BME280;9379;52.134;11.576;2023-02-22T07:12:16;100966.44;;;11.74;94.95
18500;BME280;9379;52.134;11.576;2023-02-22T07:14:43;100963.22;;;11.71;94.92
18500;BME280;9379;52.134;11.576;2023-02-22T07:17:11;100964.94;;;11.51;95.75
18500;BME280;9379;52.134;11.576;2023-02-22T07:19:38;100963.13;;;11.30;97.09
18500;BME280;9379;52.134;11.576;2023-02-22T07:22:04;100964.59;;;11.44;97.32
18500;BME280;9379;52.134;11.576;2023-02-22T07:24:31;100968.72;;;11.48;96.81
18500;BME280;9379;52.134;11.576;2023-02-22T07:26:59;100970.97;;;11.32;97.55
18500;BME280;9379;52.134;11.576;2023-02-22T07:29:26;100969.75;;;11.15;98.13
18500;BME280;9379;52.134;11.576;2023-02-22T07:31:53;100970.13;;;11.10;98.55
18500;BME280;9379;52.134;11.576;2023-02-22T07:34:21;100962.81;;;11.03;98.20
18500;BME280;9379;52.134;11.576;2023-02-22T07:36:48;100967.34;;;10.91;100.00
18500;BME280;9379;52.134;11.576;2023-02-22T07:39:14;100978.75;;;10.82;100.00
18500;BME280;9379;52.134;11.576;2023-02-22T07:41:41;100970.94;;;11.01;98.84
18500;BME280;9379;52.134;11.576;2023-02-22T07:44:08;100972.63;;;11.02;98.70
18500;BME280;9379;52.134;11.576;2023-02-22T07:46:35;100965.97;;;10.76;99.38
18500;BME280;9379;52.134;11.576;2023-02-22T07:49:02;100969.94;;;10.81;99.56
18500;BME280;9379;52.134;11.576;2023-02-22T07:51:30;100975.88;;;11.27;98.15
18500;BME280;9379;52.134;11.576;2023-02-22T07:53:57;100978.03;;;11.43;96.97
18500;BME280;9379;52.134;11.576;2023-02-22T07:56:23;100980.16;;;11.69;96.52
18500;BME280;9379;52.134;11.576;2023-02-22T07:58:50;100973.22;;;11.57;95.79
18500;BME280;9379;52.134;11.576;2023-02-22T08:01:17;100971.19;;;11.40;96.15
18500;BME280;9379;52.134;11.576;2023-02-22T08:03:44;100970.38;;;11.49;96.40
18500;BME280;9379;52.134;11.576;2023-02-22T08:06:11;100962.38;;;11.19;96.70
18500;BME280;9379;52.134;11.576;2023-02-22T08:08:40;100960.81;;;11.37;96.37
18500;BME280;9379;52.134;11.576;2023-02-22T08:11:07;100936.53;;;11.30;96.63
18500;BME280;9379;52.134;11.576;2023-02-22T08:13:34;100955.34;;;11.38;96.33
18500;BME280;9379;52.134;11.576;2023-02-22T08:16:02;100957.72;;;11.42;96.82
18500;BME280;9379;52.134;11.576;2023-02-22T08:18:29;100960.28;;;11.22;97.93
18500;BME280;9379;52.134;11.576;2023-02-22T08:20:55;100951.47;;;11.01;98.58
18500;BME280;9379;52.134;11.576;2023-02-22T08:23:24;100956.00;;;11.10;98.97
18500;BME280;9379;52.134;11.576;2023-02-22T08:25:53;100949.72;;;10.90;98.88
18500;BME280;9379;52.134;11.576;2023-02-22T08:28:22;100947.84;;;11.02;99.35
18500;BME280;9379;52.134;11.576;2023-02-22T08:30:51;100946.03;;;11.23;98.48
18500;BME280;9379;52.134;11.576;2023-02-22T08:33:18;100937.16;;;11.44;97.47
18500;BME280;9379;52.134;11.576;2023-02-22T08:35:45;100941.50;;;11.45;97.26
18500;BME280;9379;52.134;11.576;2023-02-22T08:38:16;100944.25;;;11.64;96.73
18500;BME280;9379;52.134;11.576;2023-02-22T08:40:43;100936.53;;;11.61;97.26
18500;BME280;9379;52.134;11.576;2023-02-22T08:43:11;100940.09;;;11.71;96.27
18500;BME280;9379;52.134;11.576;2023-02-22T08:45:39;100931.50;;;11.67;96.46
18500;BME280;9379;52.134;11.576;2023-02-22T08:48:05;100930.06;;;11.84;96.46
18500;BME280;9379;52.134;11.576;2023-02-22T08:50:32;100929.03;;;11.45;98.17
18500;BME280;9379;52.134;11.576;2023-02-22T08:53:02;100929.72;;;11.17;98.88
18500;BME280;9379;52.134;11.576;2023-02-22T08:55:31;100929.81;;;11.66;97.62
18500;BME280;9379;52.134;11.576;2023-02-22T08:57:59;100933.00;;;11.51;97.94
18500;BME280;9379;52.134;11.576;2023-02-22T09:00:29;100931.19;;;11.82;96.91
18500;BME280;9379;52.134;11.576;2023-02-22T09:02:58;100926.97;;;11.79;97.07
18500;BME280;9379;52.134;11.576;2023-02-22T09:05:25;100932.94;;;11.72;96.22
18500;BME280;9379;52.134;11.576;2023-02-22T09:07:52;100932.16;;;11.81;97.91
18500;BME280;9379;52.134;11.576;2023-02-22T09:10:21;100907.84;;;11.74;97.09
18500;BME280;9379;52.134;11.576;2023-02-22T09:12:49;100908.06;;;11.82;97.05
18500;BME280;9379;52.134;11.576;2023-02-22T09:15:16;100918.00;;;11.50;97.80
18500;BME280;9379;52.134;11.576;2023-02-22T09:17:45;100936.84;;;11.67;98.48
18500;BME280;9379;52.134;11.576;2023-02-22T09:20:12;100922.78;;;11.86;98.07
18500;BME280;9379;52.134;11.576;2023-02-22T09:22:39;100919.16;;;11.97;96.12
18500;BME280;9379;52.134;11.576;2023-02-22T09:25:07;100920.50;;;12.41;95.59
18500;BME280;9379;52.134;11.576;2023-02-22T09:27:34;100928.75;;;12.19;96.29
18500;BME280;9379;52.134;11.576;2023-02-22T09:30:00;100921.59;;;12.19;95.98
18500;BME280;9379;52.134;11.576;2023-02-22T09:32:27;100908.00;;;12.22;96.40
18500;BME280;9379;52.134;11.576;2023-02-22T09:34:56;100911.09;;;12.27;96.20
18500;BME280;9379;52.134;11.576;2023-02-22T09:37:22;100899.84;;;12.05;96.55
18500;BME280;9379;52.134;11.576;2023-02-22T09:39:49;100907.00;;;12.23;96.78
18500;BME280;9379;52.134;11.576;2023-02-22T09:42:23;100906.03;;;12.34;95.94
18500;BME280;9379;52.134;11.576;2023-02-22T09:44:55;100906.84;;;12.15;95.85
18500;BME280;9379;52.134;11.576;2023-02-22T09:47:37;100905.97;;;11.86;98.29
18500;BME280;9379;52.134;11.576;2023-02-22T09:50:09;100903.50;;;12.13;96.35
18500;BME280;9379;52.134;11.576;2023-02-22T09:52:49;100898.34;;;12.41;95.30
18500;BME280;9379;52.134;11.576;2023-02-22T09:55:27;100908.31;;;12.39;95.52
18500;BME280;9379;52.134;11.576;2023-02-22T09:57:59;100897.91;;;12.65;94.63
18500;BME280;9379;52.134;11.576;2023-02-22T10:00:29;100887.53;;;12.42;95.09
18500;BME280;9379;52.134;11.576;2023-02-22T10:03:08;100891.31;;;12.78;94.93
18500;BME280;9379;52.134;11.576;2023-02-22T10:05:42;100893.97;;;12.49;94.19
18500;BME280;9379;52.134;11.576;2023-02-22T10:08:12;100888.78;;;12.77;93.89
18500;BME280;9379;52.134;11.576;2023-02-22T10:10:41;100886.66;;;12.80;93.11
18500;BME280;9379;52.134;11.576;2023-02-22T10:13:17;100885.97;;;12.78;93.32
18500;BME280;9379;52.134;11.576;2023-02-22T10:15:53;100878.94;;;12.87;93.07
18500;BME280;9379;52.134;11.576;2023-02-22T10:18:48;100878.94;;;12.97;92.32
18500;BME280;9379;52.134;11.576;2023-02-22T10:21:34;100876.81;;;12.91;92.06
18500;BME280;9379;52.134;11.576;2023-02-22T10:24:10;100876.63;;;13.11;92.48
18500;BME280;9379;52.134;11.576;2023-02-22T10:26:42;100866.31;;;12.89;91.58
18500;BME280;9379;52.134;11.576;2023-02-22T10:29:15;100874.31;;;12.89;91.84
18500;BME280;9379;52.134;11.576;2023-02-22T10:31:50;100866.81;;;13.22;90.41
18500;BME280;9379;52.134;11.576;2023-02-22T10:34:22;100868.19;;;13.16;90.47
18500;BME280;9379;52.134;11.576;2023-02-22T10:36:56;100860.88;;;13.28;89.73
18500;BME280;9379;52.134;11.576;2023-02-22T10:39:27;100859.19;;;13.27;90.10
18500;BME280;9379;52.134;11.576;2023-02-22T10:42:00;100866.22;;;13.28;89.76
18500;BME280;9379;52.134;11.576;2023-02-22T10:44:31;100861.53;;;13.39;89.66
18500;BME280;9379;52.134;11.576;2023-02-22T10:46:58;100859.69;;;13.40;88.58
18500;BME280;9379;52.134;11.576;2023-02-22T10:49:29;100856.63;;;13.35;88.51
18500;BME280;9379;52.134;11.576;2023-02-22T10:52:03;100849.09;;;13.76;87.97
18500;BME280;9379;52.134;11.576;2023-02-22T10:54:32;100856.44;;;13.73;87.04
18500;BME280;9379;52.134;11.576;2023-02-22T10:57:02;100840.78;;;13.33;88.21
18500;BME280;9379;52.134;11.576;2023-02-22T10:59:31;100839.41;;;14.02;86.67
18500;BME280;9379;52.134;11.576;2023-02-22T11:01:59;100841.38;;;14.36;84.43
18500;BME280;9379;52.134;11.576;2023-02-22T11:04:44;100835.81;;;14.29;84.81
18500;BME280;9379;52.134;11.576;2023-02-22T11:07:20;100841.06;;;14.03;85.80
18500;BME280;9379;52.134;11.576;2023-02-22T11:09:50;100841.59;;;14.07;85.81
18500;BME280;9379;52.134;11.576;2023-02-22T11:12:19;100832.84;;;14.50;85.01
18500;BME280;9379;52.134;11.576;2023-02-22T11:14:47;100831.69;;;14.52;84.12
18500;BME280;9379;52.134;11.576;2023-02-22T11:17:18;100833.28;;;14.27;84.01
18500;BME280;9379;52.134;11.576;2023-02-22T11:19:48;100827.94;;;14.45;84.59
18500;BME280;9379;52.134;11.576;2023-02-22T11:22:22;100821.38;;;14.83;83.24
18500;BME280;9379;52.134;11.576;2023-02-22T11:24:52;100827.78;;;14.47;82.02
18500;BME280;9379;52.134;11.576;2023-02-22T11:27:27;100815.84;;;14.41;83.83
18500;BME280;9379;52.134;11.576;2023-02-22T11:30:07;100817.25;;;14.27;84.11
18500;BME280;9379;52.134;11.576;2023-02-22T11:32:42;100816.69;;;14.59;82.89
18500;BME280;9379;52.134;11.576;2023-02-22T11:35:32;100813.09;;;14.33;84.36
18500;BME280;9379;52.134;11.576;2023-02-22T11:38:14;100813.44;;;14.74;81.64
18500;BME280;9379;52.134;11.576;2023-02-22T11:40:44;100807.16;;;14.83;83.03
18500;BME280;9379;52.134;11.576;2023-02-22T11:43:15;100810.41;;;14.95;80.27
18500;BME280;9379;52.134;11.576;2023-02-22T11:45:57;100804.25;;;15.02;81.23
18500;BME280;9379;52.134;11.576;2023-02-22T11:48:29;100782.47;;;14.97;81.19
18500;BME280;9379;52.134;11.576;2023-02-22T11:51:08;100795.50;;;14.66;82.04
18500;BME280;9379;52.134;11.576;2023-02-22T11:53:51;100789.22;;;15.09;81.03
18500;BME280;9379;52.134;11.576;2023-02-22T11:56:26;100788.06;;;15.12;80.20
18500;BME280;9379;52.134;11.576;2023-02-22T11:59:00;100790.84;;;15.28;79.48
18500;BME280;9379;52.134;11.576;2023-02-22T12:01:37;100786.00;;;15.32;78.14
18500;BME280;9379;52.134;11.576;2023-02-22T12:04:36;100781.94;;;15.70;77.82
18500;BME280;9379;52.134;11.576;2023-02-22T12:07:17;100782.63;;;15.80;78.45
18500;BME280;9379;52.134;11.576;2023-02-22T12:09:50;100780.81;;;15.89;78.43
18500;BME280;9379;52.134;11.576;2023-02-22T12:12:29;100785.19;;;15.47;78.58
18500;BME280;9379;52.134;11.576;2023-02-22T12:15:02;100778.91;;;15.23;80.10
18500;BME280;9379;52.134;11.576;2023-02-22T12:17:38;100781.44;;;15.24;78.58
18500;BME280;9379;52.134;11.576;2023-02-22T12:20:16;100778.75;;;15.24;78.90
18500;BME280;9379;52.134;11.576;2023-02-22T12:22:53;100767.53;;;15.63;79.41
18500;BME280;9379;52.134;11.576;2023-02-22T12:25:26;100777.38;;;15.62;77.92
18500;BME280;9379;52.134;11.576;2023-02-22T12:27:56;100775.09;;;15.33;78.54
18500;BME280;9379;52.134;11.576;2023-02-22T12:30:26;100779.66;;;15.49;77.65
18500;BME280;9379;52.134;11.576;2023-02-22T12:32:58;100762.22;;;15.29;77.95
18500;BME280;9379;52.134;11.576;2023-02-22T12:35:27;100775.63;;;14.95;79.94
18500;BME280;9379;52.134;11.576;2023-02-22T12:38:03;100780.38;;;15.09;79.92
18500;BME280;9379;52.134;11.576;2023-02-22T12:40:40;100775.00;;;15.09;79.76
18500;BME280;9379;52.134;11.576;2023-02-22T12:43:15;100778.97;;;14.97;79.32
18500;BME280;9379;52.134;11.576;2023-02-22T12:45:50;100765.03;;;14.93;78.78
18500;BME280;9379;52.134;11.576;2023-02-22T12:48:26;100774.88;;;14.84;79.62
18500;BME280;9379;52.134;11.576;2023-02-22T12:50:59;100771.34;;;14.58;80.16
18500;BME280;9379;52.134;11.576;2023-02-22T12:53:32;100762.53;;;14.92;80.65
18500;BME280;9379;52.134;11.576;2023-02-22T12:56:14;100767.03;;;15.25;79.35
18500;BME280;9379;52.134;11.576;2023-02-22T12:58:47;100776.97;;;14.29;81.49
18500;BME280;9379;52.134;11.576;2023-02-22T13:01:16;100763.50;;;14.56;80.67
18500;BME280;9379;52.134;11.576;2023-02-22T13:03:45;100759.94;;;15.08;78.92
18500;BME280;9379;52.134;11.576;2023-02-22T13:06:26;100760.31;;;14.53;81.06